sensor_id;sensor_type;location;lat;lon;timestamp;temperature;humidity
11320;DHT22;5715;48.234;14.320;2023-02-12T00:02:07;3.90;99.90
11320;DHT22;5715;48.234;14.320;2023-02-12T00:04:54;3.90;99.90
11320;DHT22;5715;48.234;14.320;2023-02-12T00:07:42;3.90;99.90
11320;DHT22;5715;48.234;14.320;2023-02-12T00:10:29;4.00;99.90
11320;DHT22;5715;48.234;14.320;2023-02-12T00:13:17;3.90;99.90
11320;DHT22;5715;48.234;14.320;2023-02-12T00:16:13;4.00;99.90
11320;DHT22;5715;48.234;14.320;2023-02-12T00:19:02;4.00;99.90
11320;DHT22;5715;48.234;14.320;2023-02-12T00:21:50;4.00;99.90
11320;DHT22;5715;48.234;14.320;2023-02-12T00:24:38;4.10;99.90
11320;DHT22;5715;48.234;14.320;2023-02-12T00:27:25;4.10;99.90
11320;DHT22;5715;48.234;14.320;2023-02-12T00:30:13;4.20;99.90
11320;DHT22;5715;48.234;14.320;2023-02-12T00:33:01;4.20;99.90
11320;DHT22;5715;48.234;14.320;2023-02-12T00:35:57;4.20;99.90
11320;DHT22;5715;48.234;14.320;2023-02-12T00:38:45;4.20;99.90
11320;DHT22;5715;48.234;14.320;2023-02-12T00:41:33;4.30;99.90
11320;DHT22;5715;48.234;14.320;2023-02-12T00:44:21;4.30;99.90
11320;DHT22;5715;48.234;14.320;2023-02-12T00:47:09;4.30;99.90
11320;DHT22;5715;48.234;14.320;2023-02-12T00:49:56;4.30;99.90
11320;DHT22;5715;48.234;14.320;2023-02-12T00:52:44;4.20;99.90
11320;DHT22;5715;48.234;14.320;2023-02-12T00:55:32;4.20;99.90
11320;DHT22;5715;48.234;14.320;2023-02-12T00:58:20;4.20;99.90
11320;DHT22;5715;48.234;14.320;2023-02-12T01:01:08;4.20;99.90
11320;DHT22;5715;48.234;14.320;2023-02-12T01:03:56;4.10;99.90
11320;DHT22;5715;48.234;14.320;2023-02-12T01:06:43;4.10;99.90
11320;DHT22;5715;48.234;14.320;2023-02-12T01:09:31;4.10;99.90
11320;DHT22;5715;48.234;14.320;2023-02-12T01:12:19;4.10;99.90
11320;DHT22;5715;48.234;14.320;2023-02-12T01:15:07;4.00;99.90
11320;DHT22;5715;48.234;14.320;2023-02-12T01:17:56;4.00;99.90
11320;DHT22;5715;48.234;14.320;2023-02-12T01:20:44;4.10;99.90
11320;DHT22;5715;48.234;14.320;2023-02-12T01:23:31;4.00;99.90
11320;DHT22;5715;48.234;14.320;2023-02-12T01:26:20;4.10;99.90
11320;DHT22;5715;48.234;14.320;2023-02-12T01:29:09;4.00;99.90
11320;DHT22;5715;48.234;14.320;2023-02-12T01:31:57;4.00;99.90
11320;DHT22;5715;48.234;14.320;2023-02-12T01:34:44;4.00;99.90
11320;DHT22;5715;48.234;14.320;2023-02-12T01:37:35;4.00;99.90
11320;DHT22;5715;48.234;14.320;2023-02-12T01:40:23;4.00;99.90
11320;DHT22;5715;48.234;14.320;2023-02-12T01:43:11;4.10;99.90
11320;DHT22;5715;48.234;14.320;2023-02-12T01:46:00;4.10;99.90
11320;DHT22;5715;48.234;14.320;2023-02-12T01:48:48;4.00;99.90
11320;DHT22;5715;48.234;14.320;2023-02-12T01:51:36;4.00;99.90
11320;DHT22;5715;48.234;14.320;2023-02-12T01:54:26;4.00;99.90
11320;DHT22;5715;48.234;14.320;2023-02-12T01:57:16;3.90;99.90
11320;DHT22;5715;48.234;14.320;2023-02-12T02:00:09;4.00;99.90
11320;DHT22;5715;48.234;14.320;2023-02-12T02:03:01;4.00;99.90
11320;DHT22;5715;48.234;14.320;2023-02-12T02:05:58;4.00;99.90
11320;DHT22;5715;48.234;14.320;2023-02-12T02:08:50;4.00;99.90
11320;DHT22;5715;48.234;14.320;2023-02-12T02:11:37;4.00;99.90
11320;DHT22;5715;48.234;14.320;2023-02-12T02:14:44;3.90;99.90
11320;DHT22;5715;48.234;14.320;2023-02-12T02:24:14;4.00;99.90
11320;DHT22;5715;48.234;14.320;2023-02-12T02:33:45;3.90;99.90
11320;DHT22;5715;48.234;14.320;2023-02-12T02:39:54;3.90;99.90
11320;DHT22;5715;48.234;14.320;2023-02-12T02:46:09;3.80;99.90
11320;DHT22;5715;48.234;14.320;2023-02-12T02:49:12;3.80;99.90
11320;DHT22;5715;48.234;14.320;2023-02-12T02:52:13;3.80;99.90
11320;DHT22;5715;48.234;14.320;2023-02-12T02:55:08;3.70;99.90
11320;DHT22;5715;48.234;14.320;2023-02-12T02:58:04;3.70;99.90
11320;DHT22;5715;48.234;14.320;2023-02-12T03:01:20;3.70;99.90
11320;DHT22;5715;48.234;14.320;2023-02-12T03:04:21;3.60;99.90
11320;DHT22;5715;48.234;14.320;2023-02-12T03:07:24;3.60;99.90
11320;DHT22;5715;48.234;14.320;2023-02-12T03:10:23;3.50;99.90
11320;DHT22;5715;48.234;14.320;2023-02-12T03:13:54;3.50;99.90
11320;DHT22;5715;48.234;14.320;2023-02-12T03:19:55;3.50;99.90
11320;DHT22;5715;48.234;14.320;2023-02-12T03:22:55;3.40;99.90
11320;DHT22;5715;48.234;14.320;2023-02-12T03:26:03;3.40;99.90
11320;DHT22;5715;48.234;14.320;2023-02-12T03:28:58;3.40;99.90
11320;DHT22;5715;48.234;14.320;2023-02-12T03:31:57;3.30;99.90
11320;DHT22;5715;48.234;14.320;2023-02-12T03:38:10;3.30;99.90
11320;DHT22;5715;48.234;14.320;2023-02-12T03:41:31;3.30;99.90
11320;DHT22;5715;48.234;14.320;2023-02-12T03:44:55;3.30;99.90
11320;DHT22;5715;48.234;14.320;2023-02-12T03:51:03;3.30;99.90
11320;DHT22;5715;48.234;14.320;2023-02-12T03:54:03;3.30;99.90
11320;DHT22;5715;48.234;14.320;2023-02-12T04:00:19;3.30;99.90
11320;DHT22;5715;48.234;14.320;2023-02-12T04:03:08;3.30;99.90
11320;DHT22;5715;48.234;14.320;2023-02-12T04:05:56;3.30;99.90
11320;DHT22;5715;48.234;14.320;2023-02-12T04:08:44;3.30;99.90
11320;DHT22;5715;48.234;14.320;2023-02-12T04:18:33;3.40;99.90
11320;DHT22;5715;48.234;14.320;2023-02-12T04:24:59;3.40;99.90
11320;DHT22;5715;48.234;14.320;2023-02-12T04:31:55;3.40;99.90
11320;DHT22;5715;48.234;14.320;2023-02-12T04:35:07;3.50;99.90
11320;DHT22;5715;48.234;14.320;2023-02-12T04:41:25;3.40;99.90
11320;DHT22;5715;48.234;14.320;2023-02-12T04:44:20;3.40;99.90
11320;DHT22;5715;48.234;14.320;2023-02-12T04:47:15;3.40;99.90
11320;DHT22;5715;48.234;14.320;2023-02-12T04:50:04;3.50;99.90
11320;DHT22;5715;48.234;14.320;2023-02-12T04:52:52;3.50;99.90
11320;DHT22;5715;48.234;14.320;2023-02-12T04:55:39;3.50;99.90
11320;DHT22;5715;48.234;14.320;2023-02-12T04:58:27;3.50;99.90
11320;DHT22;5715;48.234;14.320;2023-02-12T05:01:15;3.50;99.90
11320;DHT22;5715;48.234;14.320;2023-02-12T05:04:03;3.60;99.90
11320;DHT22;5715;48.234;14.320;2023-02-12T05:06:52;3.50;99.90
11320;DHT22;5715;48.234;14.320;2023-02-12T05:09:39;3.50;99.90
11320;DHT22;5715;48.234;14.320;2023-02-12T05:12:27;3.50;99.90
11320;DHT22;5715;48.234;14.320;2023-02-12T05:15:14;3.50;99.90
11320;DHT22;5715;48.234;14.320;2023-02-12T05:18:02;3.60;99.90
11320;DHT22;5715;48.234;14.320;2023-02-12T05:21:00;3.60;99.90
11320;DHT22;5715;48.234;14.320;2023-02-12T05:23:49;3.50;99.90
11320;DHT22;5715;48.234;14.320;2023-02-12T05:26:37;3.50;99.90
11320;DHT22;5715;48.234;14.320;2023-02-12T05:29:25;3.50;99.90
11320;DHT22;5715;48.234;14.320;2023-02-12T05:32:12;3.50;99.90
11320;DHT22;5715;48.234;14.320;2023-02-12T05:35:00;3.50;99.90
11320;DHT22;5715;48.234;14.320;2023-02-12T05:37:47;3.50;99.90
11320;DHT22;5715;48.234;14.320;2023-02-12T05:40:35;3.50;99.90
11320;DHT22;5715;48.234;14.320;2023-02-12T05:43:23;3.50;99.90
11320;DHT22;5715;48.234;14.320;2023-02-12T05:46:11;3.50;99.90
11320;DHT22;5715;48.234;14.320;2023-02-12T05:48:59;3.50;99.90
11320;DHT22;5715;48.234;14.320;2023-02-12T05:51:47;3.50;99.90
11320;DHT22;5715;48.234;14.320;2023-02-12T05:54:35;3.50;99.90
11320;DHT22;5715;48.234;14.320;2023-02-12T05:57:23;3.50;99.90
11320;DHT22;5715;48.234;14.320;2023-02-12T06:00:12;3.50;99.90
11320;DHT22;5715;48.234;14.320;2023-02-12T06:03:00;3.60;99.90
11320;DHT22;5715;48.234;14.320;2023-02-12T06:05:51;3.50;99.90
11320;DHT22;5715;48.234;14.320;2023-02-12T06:08:40;3.50;99.90
11320;DHT22;5715;48.234;14.320;2023-02-12T06:11:28;3.60;99.90
11320;DHT22;5715;48.234;14.320;2023-02-12T06:14:17;3.60;99.90
11320;DHT22;5715;48.234;14.320;2023-02-12T06:17:06;3.60;99.90
11320;DHT22;5715;48.234;14.320;2023-02-12T06:19:54;3.60;99.90
11320;DHT22;5715;48.234;14.320;2023-02-12T06:22:41;3.60;99.90
11320;DHT22;5715;48.234;14.320;2023-02-12T06:25:29;3.60;99.90
11320;DHT22;5715;48.234;14.320;2023-02-12T06:28:16;3.60;99.90
11320;DHT22;5715;48.234;14.320;2023-02-12T06:31:04;3.60;99.90
11320;DHT22;5715;48.234;14.320;2023-02-12T06:33:53;3.60;99.90
11320;DHT22;5715;48.234;14.320;2023-02-12T06:36:43;3.50;99.90
11320;DHT22;5715;48.234;14.320;2023-02-12T06:39:32;3.50;99.90
11320;DHT22;5715;48.234;14.320;2023-02-12T06:42:20;3.50;99.90
11320;DHT22;5715;48.234;14.320;2023-02-12T06:45:07;3.60;99.90
11320;DHT22;5715;48.234;14.320;2023-02-12T06:47:55;3.60;99.90
11320;DHT22;5715;48.234;14.320;2023-02-12T06:50:43;3.60;99.90
11320;DHT22;5715;48.234;14.320;2023-02-12T06:53:32;3.70;99.90
11320;DHT22;5715;48.234;14.320;2023-02-12T06:56:23;3.70;99.90
11320;DHT22;5715;48.234;14.320;2023-02-12T06:59:14;3.70;99.90
11320;DHT22;5715;48.234;14.320;2023-02-12T07:02:02;3.60;99.90
11320;DHT22;5715;48.234;14.320;2023-02-12T07:04:50;3.70;99.90
11320;DHT22;5715;48.234;14.320;2023-02-12T07:07:38;3.70;99.90
11320;DHT22;5715;48.234;14.320;2023-02-12T07:10:25;3.70;99.90
11320;DHT22;5715;48.234;14.320;2023-02-12T07:13:13;3.70;99.90
11320;DHT22;5715;48.234;14.320;2023-02-12T07:16:09;3.80;99.90
11320;DHT22;5715;48.234;14.320;2023-02-12T07:18:58;3.80;99.90
11320;DHT22;5715;48.234;14.320;2023-02-12T07:21:46;3.80;99.90
11320;DHT22;5715;48.234;14.320;2023-02-12T07:24:33;3.80;99.90
11320;DHT22;5715;48.234;14.320;2023-02-12T07:27:21;3.80;99.90
11320;DHT22;5715;48.234;14.320;2023-02-12T07:30:09;3.90;99.90
11320;DHT22;5715;48.234;14.320;2023-02-12T07:32:57;3.90;99.90
11320;DHT22;5715;48.234;14.320;2023-02-12T07:35:45;4.00;99.90
11320;DHT22;5715;48.234;14.320;2023-02-12T07:38:32;4.00;99.90
11320;DHT22;5715;48.234;14.320;2023-02-12T07:41:30;4.00;99.90
11320;DHT22;5715;48.234;14.320;2023-02-12T07:44:20;4.10;99.90
11320;DHT22;5715;48.234;14.320;2023-02-12T07:47:07;4.10;99.90
11320;DHT22;5715;48.234;14.320;2023-02-12T07:49:55;4.10;99.90
11320;DHT22;5715;48.234;14.320;2023-02-12T07:52:43;4.10;99.90
11320;DHT22;5715;48.234;14.320;2023-02-12T07:55:30;4.10;99.90
11320;DHT22;5715;48.234;14.320;2023-02-12T07:58:18;4.10;99.90
11320;DHT22;5715;48.234;14.320;2023-02-12T08:04:04;4.10;99.90
11320;DHT22;5715;48.234;14.320;2023-02-12T08:06:55;4.20;99.90
11320;DHT22;5715;48.234;14.320;2023-02-12T08:09:43;4.20;99.90
11320;DHT22;5715;48.234;14.320;2023-02-12T08:12:30;4.20;99.90
11320;DHT22;5715;48.234;14.320;2023-02-12T08:15:18;4.30;99.90
11320;DHT22;5715;48.234;14.320;2023-02-12T08:18:06;4.30;99.90
11320;DHT22;5715;48.234;14.320;2023-02-12T08:20:53;4.40;99.90
11320;DHT22;5715;48.234;14.320;2023-02-12T08:23:41;4.40;99.90
11320;DHT22;5715;48.234;14.320;2023-02-12T08:26:30;4.40;99.90
11320;DHT22;5715;48.234;14.320;2023-02-12T08:29:22;4.50;99.90
11320;DHT22;5715;48.234;14.320;2023-02-12T08:32:14;4.50;99.90
11320;DHT22;5715;48.234;14.320;2023-02-12T08:35:03;4.50;99.90
11320;DHT22;5715;48.234;14.320;2023-02-12T08:37:51;4.50;99.90
11320;DHT22;5715;48.234;14.320;2023-02-12T08:40:38;4.50;99.90
11320;DHT22;5715;48.234;14.320;2023-02-12T08:43:26;4.50;99.90
11320;DHT22;5715;48.234;14.320;2023-02-12T08:46:16;4.50;99.90
11320;DHT22;5715;48.234;14.320;2023-02-12T08:49:11;4.60;99.90
11320;DHT22;5715;48.234;14.320;2023-02-12T08:52:03;4.60;99.90
11320;DHT22;5715;48.234;14.320;2023-02-12T08:54:51;4.60;99.90
11320;DHT22;5715;48.234;14.320;2023-02-12T08:57:41;4.70;99.90
11320;DHT22;5715;48.234;14.320;2023-02-12T09:00:28;4.70;99.90
11320;DHT22;5715;48.234;14.320;2023-02-12T09:03:16;4.80;99.90
11320;DHT22;5715;48.234;14.320;2023-02-12T09:06:05;4.80;99.90
11320;DHT22;5715;48.234;14.320;2023-02-12T09:08:54;4.90;99.90
11320;DHT22;5715;48.234;14.320;2023-02-12T09:11:42;5.00;99.90
11320;DHT22;5715;48.234;14.320;2023-02-12T09:14:31;5.00;99.90
11320;DHT22;5715;48.234;14.320;2023-02-12T09:17:18;5.10;99.90
11320;DHT22;5715;48.234;14.320;2023-02-12T09:20:06;5.10;99.90
11320;DHT22;5715;48.234;14.320;2023-02-12T09:22:54;5.20;99.90
11320;DHT22;5715;48.234;14.320;2023-02-12T09:25:43;5.30;99.90
11320;DHT22;5715;48.234;14.320;2023-02-12T09:28:32;5.30;99.90
11320;DHT22;5715;48.234;14.320;2023-02-12T09:31:28;5.40;99.90
11320;DHT22;5715;48.234;14.320;2023-02-12T09:34:17;5.60;99.90
11320;DHT22;5715;48.234;14.320;2023-02-12T09:37:04;5.70;99.90
11320;DHT22;5715;48.234;14.320;2023-02-12T09:39:52;5.70;99.90
11320;DHT22;5715;48.234;14.320;2023-02-12T09:53:16;5.60;99.90
11320;DHT22;5715;48.234;14.320;2023-02-12T09:56:16;5.70;99.90
11320;DHT22;5715;48.234;14.320;2023-02-12T09:59:07;5.70;99.90
11320;DHT22;5715;48.234;14.320;2023-02-12T10:01:57;5.90;99.90
11320;DHT22;5715;48.234;14.320;2023-02-12T10:04:47;5.80;99.90
11320;DHT22;5715;48.234;14.320;2023-02-12T10:14:49;6.00;99.90
11320;DHT22;5715;48.234;14.320;2023-02-12T10:24:43;6.10;99.90
11320;DHT22;5715;48.234;14.320;2023-02-12T10:27:50;6.10;99.90
11320;DHT22;5715;48.234;14.320;2023-02-12T10:30:55;6.10;99.90
11320;DHT22;5715;48.234;14.320;2023-02-12T10:33:48;6.30;99.90
11320;DHT22;5715;48.234;14.320;2023-02-12T10:36:47;6.40;99.90
11320;DHT22;5715;48.234;14.320;2023-02-12T10:39:40;6.50;99.90
11320;DHT22;5715;48.234;14.320;2023-02-12T10:42:40;6.60;99.90
11320;DHT22;5715;48.234;14.320;2023-02-12T10:45:34;6.70;99.90
11320;DHT22;5715;48.234;14.320;2023-02-12T10:48:36;6.70;99.90
11320;DHT22;5715;48.234;14.320;2023-02-12T10:55:30;6.70;99.90
11320;DHT22;5715;48.234;14.320;2023-02-12T10:58:22;6.80;99.90
11320;DHT22;5715;48.234;14.320;2023-02-12T11:01:16;6.80;99.90
11320;DHT22;5715;48.234;14.320;2023-02-12T11:04:31;6.90;99.90
11320;DHT22;5715;48.234;14.320;2023-02-12T11:07:20;7.00;99.90
11320;DHT22;5715;48.234;14.320;2023-02-12T11:10:20;7.20;99.90
11320;DHT22;5715;48.234;14.320;2023-02-12T11:13:39;7.30;99.90
11320;DHT22;5715;48.234;14.320;2023-02-12T11:16:37;7.40;99.90
11320;DHT22;5715;48.234;14.320;2023-02-12T11:19:31;7.50;99.90
11320;DHT22;5715;48.234;14.320;2023-02-12T11:22:21;7.60;99.90
11320;DHT22;5715;48.234;14.320;2023-02-12T11:25:14;7.70;99.90
11320;DHT22;5715;48.234;14.320;2023-02-12T11:28:15;7.80;99.90
11320;DHT22;5715;48.234;14.320;2023-02-12T11:31:24;7.80;99.90
11320;DHT22;5715;48.234;14.320;2023-02-12T11:34:17;7.90;99.90
11320;DHT22;5715;48.234;14.320;2023-02-12T11:37:15;7.90;99.90
11320;DHT22;5715;48.234;14.320;2023-02-12T11:40:05;8.00;99.90
11320;DHT22;5715;48.234;14.320;2023-02-12T11:42:59;8.10;99.90
11320;DHT22;5715;48.234;14.320;2023-02-12T11:45:53;8.20;99.90
11320;DHT22;5715;48.234;14.320;2023-02-12T11:48:45;8.20;99.90
11320;DHT22;5715;48.234;14.320;2023-02-12T11:51:34;8.30;99.90
11320;DHT22;5715;48.234;14.320;2023-02-12T11:54:25;8.40;99.90
11320;DHT22;5715;48.234;14.320;2023-02-12T11:57:44;8.40;99.90
11320;DHT22;5715;48.234;14.320;2023-02-12T12:00:38;8.50;99.90
11320;DHT22;5715;48.234;14.320;2023-02-12T12:03:44;8.50;99.90
11320;DHT22;5715;48.234;14.320;2023-02-12T12:09:31;8.30;99.90
11320;DHT22;5715;48.234;14.320;2023-02-12T12:12:28;8.10;99.90
11320;DHT22;5715;48.234;14.320;2023-02-12T12:18:45;7.90;99.90
11320;DHT22;5715;48.234;14.320;2023-02-12T12:28:39;8.00;99.90
11320;DHT22;5715;48.234;14.320;2023-02-12T12:34:27;8.10;99.90
11320;DHT22;5715;48.234;14.320;2023-02-12T12:37:43;8.20;99.90
11320;DHT22;5715;48.234;14.320;2023-02-12T12:41:02;8.30;99.90
11320;DHT22;5715;48.234;14.320;2023-02-12T12:57:32;8.00;99.90
11320;DHT22;5715;48.234;14.320;2023-02-12T13:04:18;8.20;99.90
11320;DHT22;5715;48.234;14.320;2023-02-12T13:07:57;8.20;99.90
11320;DHT22;5715;48.234;14.320;2023-02-12T13:14:34;8.40;99.90
11320;DHT22;5715;48.234;14.320;2023-02-12T13:27:01;8.40;99.90
11320;DHT22;5715;48.234;14.320;2023-02-12T13:30:48;8.50;99.90
11320;DHT22;5715;48.234;14.320;2023-02-12T13:33:24;8.50;99.90
11320;DHT22;5715;48.234;14.320;2023-02-12T13:36:15;8.40;99.90
11320;DHT22;5715;48.234;14.320;2023-02-12T13:45:18;8.30;99.90
11320;DHT22;5715;48.234;14.320;2023-02-12T13:51:48;8.30;99.90
11320;DHT22;5715;48.234;14.320;2023-02-12T13:57:45;8.30;99.90
11320;DHT22;5715;48.234;14.320;2023-02-12T14:01:10;8.40;99.90
11320;DHT22;5715;48.234;14.320;2023-02-12T14:07:47;8.50;99.90
11320;DHT22;5715;48.234;14.320;2023-02-12T14:10:41;8.40;99.90
11320;DHT22;5715;48.234;14.320;2023-02-12T14:13:30;8.30;99.90
11320;DHT22;5715;48.234;14.320;2023-02-12T14:25:35;8.40;99.90
11320;DHT22;5715;48.234;14.320;2023-02-12T14:31:40;8.50;99.90
11320;DHT22;5715;48.234;14.320;2023-02-12T14:37:33;8.50;99.90
11320;DHT22;5715;48.234;14.320;2023-02-12T14:40:40;8.50;99.90
11320;DHT22;5715;48.234;14.320;2023-02-12T14:43:37;8.50;99.90
11320;DHT22;5715;48.234;14.320;2023-02-12T14:46:52;8.60;99.90
11320;DHT22;5715;48.234;14.320;2023-02-12T14:49:47;8.50;99.90
11320;DHT22;5715;48.234;14.320;2023-02-12T14:52:40;8.40;99.90
11320;DHT22;5715;48.234;14.320;2023-02-12T14:55:33;8.40;99.90
11320;DHT22;5715;48.234;14.320;2023-02-12T14:58:27;8.20;99.90
11320;DHT22;5715;48.234;14.320;2023-02-12T15:01:17;8.10;99.90
11320;DHT22;5715;48.234;14.320;2023-02-12T15:04:32;8.00;99.90
11320;DHT22;5715;48.234;14.320;2023-02-12T15:14:27;7.70;99.90
11320;DHT22;5715;48.234;14.320;2023-02-12T15:17:25;7.60;99.90
11320;DHT22;5715;48.234;14.320;2023-02-12T15:20:20;7.40;99.90
11320;DHT22;5715;48.234;14.320;2023-02-12T15:26:26;7.40;99.90
11320;DHT22;5715;48.234;14.320;2023-02-12T15:32:30;7.30;99.90
11320;DHT22;5715;48.234;14.320;2023-02-12T15:35:33;7.20;99.90
11320;DHT22;5715;48.234;14.320;2023-02-12T15:38:32;7.10;99.90
11320;DHT22;5715;48.234;14.320;2023-02-12T15:47:15;6.90;99.90
11320;DHT22;5715;48.234;14.320;2023-02-12T15:50:03;6.90;99.90
11320;DHT22;5715;48.234;14.320;2023-02-12T15:52:51;6.90;99.90
11320;DHT22;5715;48.234;14.320;2023-02-12T15:55:45;6.80;99.90
11320;DHT22;5715;48.234;14.320;2023-02-12T15:58:45;6.80;99.90
11320;DHT22;5715;48.234;14.320;2023-02-12T16:01:34;6.70;99.90
11320;DHT22;5715;48.234;14.320;2023-02-12T16:04:22;6.60;99.90
11320;DHT22;5715;48.234;14.320;2023-02-12T16:07:12;6.60;99.90
11320;DHT22;5715;48.234;14.320;2023-02-12T16:10:01;6.50;99.90
11320;DHT22;5715;48.234;14.320;2023-02-12T16:12:49;6.40;99.90
11320;DHT22;5715;48.234;14.320;2023-02-12T16:15:37;6.20;99.90
11320;DHT22;5715;48.234;14.320;2023-02-12T16:18:26;6.10;99.90
11320;DHT22;5715;48.234;14.320;2023-02-12T16:21:15;6.00;99.90
11320;DHT22;5715;48.234;14.320;2023-02-12T16:30:30;5.60;99.90
11320;DHT22;5715;48.234;14.320;2023-02-12T16:33:34;5.50;99.90
11320;DHT22;5715;48.234;14.320;2023-02-12T16:36:28;5.30;99.90
11320;DHT22;5715;48.234;14.320;2023-02-12T16:40:21;5.20;99.90
11320;DHT22;5715;48.234;14.320;2023-02-12T16:43:03;5.00;99.90
11320;DHT22;5715;48.234;14.320;2023-02-12T16:46:08;4.90;99.90
11320;DHT22;5715;48.234;14.320;2023-02-12T16:48:59;4.80;99.90
11320;DHT22;5715;48.234;14.320;2023-02-12T16:51:49;4.70;99.90
11320;DHT22;5715;48.234;14.320;2023-02-12T16:54:37;4.60;99.90
11320;DHT22;5715;48.234;14.320;2023-02-12T16:57:25;4.50;99.90
11320;DHT22;5715;48.234;14.320;2023-02-12T17:00:15;4.50;99.90
11320;DHT22;5715;48.234;14.320;2023-02-12T17:03:04;4.40;99.90
11320;DHT22;5715;48.234;14.320;2023-02-12T17:05:52;4.40;99.90
11320;DHT22;5715;48.234;14.320;2023-02-12T17:08:39;4.40;99.90
11320;DHT22;5715;48.234;14.320;2023-02-12T17:11:28;4.30;99.90
11320;DHT22;5715;48.234;14.320;2023-02-12T17:14:18;4.30;99.90
11320;DHT22;5715;48.234;14.320;2023-02-12T17:17:06;4.30;99.90
11320;DHT22;5715;48.234;14.320;2023-02-12T17:19:54;4.30;99.90
11320;DHT22;5715;48.234;14.320;2023-02-12T17:22:47;4.20;99.90
11320;DHT22;5715;48.234;14.320;2023-02-12T17:25:40;4.20;99.90
11320;DHT22;5715;48.234;14.320;2023-02-12T17:28:27;4.10;99.90
11320;DHT22;5715;48.234;14.320;2023-02-12T17:31:15;4.10;99.90
11320;DHT22;5715;48.234;14.320;2023-02-12T17:34:03;4.10;99.90
11320;DHT22;5715;48.234;14.320;2023-02-12T17:36:51;4.00;99.90
11320;DHT22;5715;48.234;14.320;2023-02-12T17:39:39;4.00;99.90
11320;DHT22;5715;48.234;14.320;2023-02-12T17:42:27;3.90;99.90
11320;DHT22;5715;48.234;14.320;2023-02-12T17:45:15;3.90;99.90
11320;DHT22;5715;48.234;14.320;2023-02-12T17:48:03;3.90;99.90
11320;DHT22;5715;48.234;14.320;2023-02-12T17:50:54;3.80;99.90
11320;DHT22;5715;48.234;14.320;2023-02-12T17:53:45;3.80;99.90
11320;DHT22;5715;48.234;14.320;2023-02-12T17:56:33;3.70;99.90
11320;DHT22;5715;48.234;14.320;2023-02-12T17:59:21;3.70;99.90
11320;DHT22;5715;48.234;14.320;2023-02-12T18:02:10;3.70;99.90
11320;DHT22;5715;48.234;14.320;2023-02-12T18:04:58;3.60;99.90
11320;DHT22;5715;48.234;14.320;2023-02-12T18:07:46;3.60;99.90
11320;DHT22;5715;48.234;14.320;2023-02-12T18:10:39;3.60;99.90
11320;DHT22;5715;48.234;14.320;2023-02-12T18:13:27;3.50;99.90
11320;DHT22;5715;48.234;14.320;2023-02-12T18:16:16;3.50;99.90
11320;DHT22;5715;48.234;14.320;2023-02-12T18:19:03;3.50;99.90
11320;DHT22;5715;48.234;14.320;2023-02-12T18:21:52;3.40;99.90
11320;DHT22;5715;48.234;14.320;2023-02-12T18:24:39;3.40;99.90
11320;DHT22;5715;48.234;14.320;2023-02-12T18:27:27;3.20;99.90
11320;DHT22;5715;48.234;14.320;2023-02-12T18:30:15;3.40;99.90
11320;DHT22;5715;48.234;14.320;2023-02-12T18:33:04;3.40;99.90
11320;DHT22;5715;48.234;14.320;2023-02-12T18:35:57;3.40;99.90
11320;DHT22;5715;48.234;14.320;2023-02-12T18:38:51;3.40;99.90
11320;DHT22;5715;48.234;14.320;2023-02-12T18:41:39;3.40;99.90
11320;DHT22;5715;48.234;14.320;2023-02-12T18:44:26;3.40;99.90
11320;DHT22;5715;48.234;14.320;2023-02-12T18:47:14;3.40;99.90
11320;DHT22;5715;48.234;14.320;2023-02-12T18:50:05;3.40;99.90
11320;DHT22;5715;48.234;14.320;2023-02-12T18:52:53;3.50;99.90
11320;DHT22;5715;48.234;14.320;2023-02-12T18:55:41;3.50;99.90
11320;DHT22;5715;48.234;14.320;2023-02-12T18:58:29;3.50;99.90
11320;DHT22;5715;48.234;14.320;2023-02-12T19:01:18;3.50;99.90
11320;DHT22;5715;48.234;14.320;2023-02-12T19:04:09;3.50;99.90
11320;DHT22;5715;48.234;14.320;2023-02-12T19:06:58;3.50;99.90
11320;DHT22;5715;48.234;14.320;2023-02-12T19:09:46;3.50;99.90
11320;DHT22;5715;48.234;14.320;2023-02-12T19:12:33;3.40;99.90
11320;DHT22;5715;48.234;14.320;2023-02-12T19:15:22;3.50;99.90
11320;DHT22;5715;48.234;14.320;2023-02-12T19:18:09;3.50;99.90
11320;DHT22;5715;48.234;14.320;2023-02-12T19:20:57;3.50;99.90
11320;DHT22;5715;48.234;14.320;2023-02-12T19:23:45;3.50;99.90
11320;DHT22;5715;48.234;14.320;2023-02-12T19:26:34;3.50;99.90
11320;DHT22;5715;48.234;14.320;2023-02-12T19:29:22;3.50;99.90
11320;DHT22;5715;48.234;14.320;2023-02-12T19:32:10;3.50;99.90
11320;DHT22;5715;48.234;14.320;2023-02-12T19:34:57;3.50;99.90
11320;DHT22;5715;48.234;14.320;2023-02-12T19:37:45;3.50;99.90
11320;DHT22;5715;48.234;14.320;2023-02-12T19:40:32;3.40;99.90
11320;DHT22;5715;48.234;14.320;2023-02-12T19:43:20;3.40;99.90
11320;DHT22;5715;48.234;14.320;2023-02-12T19:46:11;3.40;99.90
11320;DHT22;5715;48.234;14.320;2023-02-12T19:49:04;3.40;99.90
11320;DHT22;5715;48.234;14.320;2023-02-12T19:51:53;3.40;99.90
11320;DHT22;5715;48.234;14.320;2023-02-12T19:54:43;3.30;99.90
11320;DHT22;5715;48.234;14.320;2023-02-12T19:57:32;3.30;99.90
11320;DHT22;5715;48.234;14.320;2023-02-12T20:00:20;3.20;99.90
11320;DHT22;5715;48.234;14.320;2023-02-12T20:03:07;3.30;99.90
11320;DHT22;5715;48.234;14.320;2023-02-12T20:06:00;3.20;99.90
11320;DHT22;5715;48.234;14.320;2023-02-12T20:08:50;3.10;99.90
11320;DHT22;5715;48.234;14.320;2023-02-12T20:11:38;3.10;99.90
11320;DHT22;5715;48.234;14.320;2023-02-12T20:14:27;3.10;99.90
11320;DHT22;5715;48.234;14.320;2023-02-12T20:17:14;3.00;99.90
11320;DHT22;5715;48.234;14.320;2023-02-12T20:20:03;3.00;99.90
11320;DHT22;5715;48.234;14.320;2023-02-12T20:22:52;3.00;99.90
11320;DHT22;5715;48.234;14.320;2023-02-12T20:25:43;2.90;99.90
11320;DHT22;5715;48.234;14.320;2023-02-12T20:28:32;2.90;99.90
11320;DHT22;5715;48.234;14.320;2023-02-12T20:31:23;2.90;99.90
11320;DHT22;5715;48.234;14.320;2023-02-12T20:34:15;2.90;99.90
11320;DHT22;5715;48.234;14.320;2023-02-12T20:37:05;2.80;99.90
11320;DHT22;5715;48.234;14.320;2023-02-12T20:39:52;2.80;99.90
11320;DHT22;5715;48.234;14.320;2023-02-12T20:42:40;2.90;99.90
11320;DHT22;5715;48.234;14.320;2023-02-12T20:45:28;2.90;99.90
11320;DHT22;5715;48.234;14.320;2023-02-12T20:48:16;2.90;99.90
11320;DHT22;5715;48.234;14.320;2023-02-12T20:51:08;2.80;99.90
11320;DHT22;5715;48.234;14.320;2023-02-12T20:53:59;2.80;99.90
11320;DHT22;5715;48.234;14.320;2023-02-12T20:56:49;2.80;99.90
11320;DHT22;5715;48.234;14.320;2023-02-12T20:59:37;2.70;99.90
11320;DHT22;5715;48.234;14.320;2023-02-12T21:02:24;2.70;99.90
11320;DHT22;5715;48.234;14.320;2023-02-12T21:05:13;2.70;99.90
11320;DHT22;5715;48.234;14.320;2023-02-12T21:08:01;2.70;99.90
11320;DHT22;5715;48.234;14.320;2023-02-12T21:10:49;2.60;99.90
11320;DHT22;5715;48.234;14.320;2023-02-12T21:13:47;2.60;99.90
11320;DHT22;5715;48.234;14.320;2023-02-12T21:16:49;2.60;99.90
11320;DHT22;5715;48.234;14.320;2023-02-12T21:19:38;2.60;99.90
11320;DHT22;5715;48.234;14.320;2023-02-12T21:22:26;2.60;99.90
11320;DHT22;5715;48.234;14.320;2023-02-12T21:25:14;2.60;99.90
11320;DHT22;5715;48.234;14.320;2023-02-12T21:28:02;2.50;99.90
11320;DHT22;5715;48.234;14.320;2023-02-12T21:30:50;2.40;99.90